sensor_id;sensor_type;location;lat;lon;timestamp;pressure;altitude;pressure_sealevel;temperature;humidity
16690;BME280;8458;52.220;9.884;2023-05-01T00:02:09;101193.47;;;9.44;60.71
16690;BME280;8458;52.220;9.884;2023-05-01T00:04:35;101179.88;;;9.43;60.51
16690;BME280;8458;52.220;9.884;2023-05-01T00:07:03;101175.97;;;9.27;61.14
16690;BME280;8458;52.220;9.884;2023-05-01T00:09:30;101174.75;;;9.23;61.51
16690;BME280;8458;52.220;9.884;2023-05-01T00:11:57;101169.22;;;9.23;61.65
16690;BME280;8458;52.220;9.884;2023-05-01T00:14:24;101163.28;;;9.31;61.78
16690;BME280;8458;52.220;9.884;2023-05-01T00:16:50;101166.56;;;9.28;61.92
16690;BME280;8458;52.220;9.884;2023-05-01T00:19:16;101161.50;;;9.25;62.14
16690;BME280;8458;52.220;9.884;2023-05-01T00:21:43;101158.63;;;9.20;62.38
16690;BME280;8458;52.220;9.884;2023-05-01T00:24:13;101154.56;;;9.10;62.50
16690;BME280;8458;52.220;9.884;2023-05-01T00:26:40;101162.28;;;9.08;62.58
16690;BME280;8458;52.220;9.884;2023-05-01T00:29:07;101156.75;;;9.08;62.68
16690;BME280;8458;52.220;9.884;2023-05-01T00:31:33;101150.41;;;8.96;62.33
16690;BME280;8458;52.220;9.884;2023-05-01T00:34:00;101143.31;;;8.88;62.54
16690;BME280;8458;52.220;9.884;2023-05-01T00:36:27;101134.19;;;8.88;62.75
16690;BME280;8458;52.220;9.884;2023-05-01T00:38:53;101144.63;;;8.86;63.11
16690;BME280;8458;52.220;9.884;2023-05-01T00:41:21;101137.44;;;8.85;62.91
16690;BME280;8458;52.220;9.884;2023-05-01T00:43:47;101133.22;;;8.82;62.71
16690;BME280;8458;52.220;9.884;2023-05-01T00:46:14;101137.28;;;8.79;62.92
16690;BME280;8458;52.220;9.884;2023-05-01T00:48:40;101133.69;;;8.79;62.93
16690;BME280;8458;52.220;9.884;2023-05-01T00:51:07;101130.22;;;8.84;62.91
16690;BME280;8458;52.220;9.884;2023-05-01T00:53:34;101126.22;;;8.79;62.77
16690;BME280;8458;52.220;9.884;2023-05-01T00:56:00;101128.06;;;8.74;62.93
16690;BME280;8458;52.220;9.884;2023-05-01T00:58:29;101123.00;;;8.71;62.63
16690;BME280;8458;52.220;9.884;2023-05-01T01:00:56;101123.59;;;8.61;62.99
16690;BME280;8458;52.220;9.884;2023-05-01T01:03:23;101131.06;;;8.49;63.66
16690;BME280;8458;52.220;9.884;2023-05-01T01:05:55;101132.75;;;8.50;63.36
16690;BME280;8458;52.220;9.884;2023-05-01T01:08:26;101127.22;;;8.50;63.45
16690;BME280;8458;52.220;9.884;2023-05-01T01:11:00;101125.75;;;8.47;64.04
16690;BME280;8458;52.220;9.884;2023-05-01T01:13:38;101127.41;;;8.36;64.37
16690;BME280;8458;52.220;9.884;2023-05-01T01:16:11;101120.22;;;8.35;64.62
16690;BME280;8458;52.220;9.884;2023-05-01T01:18:40;101116.34;;;8.36;64.38
16690;BME280;8458;52.220;9.884;2023-05-01T01:21:11;101118.66;;;8.39;64.75
16690;BME280;8458;52.220;9.884;2023-05-01T01:24:25;101102.69;;;8.41;64.18
16690;BME280;8458;52.220;9.884;2023-05-01T01:27:12;101112.03;;;8.40;64.40
16690;BME280;8458;52.220;9.884;2023-05-01T01:29:55;101103.16;;;8.38;64.69
16690;BME280;8458;52.220;9.884;2023-05-01T01:33:01;101092.13;;;8.38;64.45
16690;BME280;8458;52.220;9.884;2023-05-01T01:35:33;101088.72;;;8.36;64.64
16690;BME280;8458;52.220;9.884;2023-05-01T01:38:05;101086.34;;;8.28;64.80
16690;BME280;8458;52.220;9.884;2023-05-01T01:40:37;101086.22;;;8.23;65.61
16690;BME280;8458;52.220;9.884;2023-05-01T01:43:06;101085.59;;;8.21;65.73
16690;BME280;8458;52.220;9.884;2023-05-01T01:45:36;101088.84;;;8.18;65.77
16690;BME280;8458;52.220;9.884;2023-05-01T01:48:06;101086.44;;;8.10;65.56
16690;BME280;8458;52.220;9.884;2023-05-01T01:50:36;101082.94;;;8.02;65.56
16690;BME280;8458;52.220;9.884;2023-05-01T01:53:05;101084.47;;;7.86;66.38
16690;BME280;8458;52.220;9.884;2023-05-01T01:55:35;101070.91;;;7.85;66.12
16690;BME280;8458;52.220;9.884;2023-05-01T01:58:02;101061.56;;;7.86;65.90
16690;BME280;8458;52.220;9.884;2023-05-01T02:00:32;101052.06;;;7.82;66.29
16690;BME280;8458;52.220;9.884;2023-05-01T02:03:01;101060.97;;;7.84;66.47
16690;BME280;8458;52.220;9.884;2023-05-01T02:05:29;101056.03;;;7.86;66.82
16690;BME280;8458;52.220;9.884;2023-05-01T02:07:58;101055.56;;;7.89;66.49
16690;BME280;8458;52.220;9.884;2023-05-01T02:10:26;101047.41;;;7.94;65.97
16690;BME280;8458;52.220;9.884;2023-05-01T02:12:55;101048.00;;;7.84;65.77
16690;BME280;8458;52.220;9.884;2023-05-01T02:15:24;101045.00;;;7.86;66.15
16690;BME280;8458;52.220;9.884;2023-05-01T02:17:52;101044.28;;;7.90;65.94
16690;BME280;8458;52.220;9.884;2023-05-01T02:20:20;101040.06;;;7.88;66.39
16690;BME280;8458;52.220;9.884;2023-05-01T02:22:48;101037.66;;;7.92;67.02
16690;BME280;8458;52.220;9.884;2023-05-01T02:25:18;101032.88;;;7.87;67.49
16690;BME280;8458;52.220;9.884;2023-05-01T02:27:51;101013.06;;;7.90;67.26
16690;BME280;8458;52.220;9.884;2023-05-01T02:30:18;101015.22;;;8.00;67.07
16690;BME280;8458;52.220;9.884;2023-05-01T02:32:44;101015.47;;;7.98;66.63
16690;BME280;8458;52.220;9.884;2023-05-01T02:35:11;101014.84;;;7.84;66.98
16690;BME280;8458;52.220;9.884;2023-05-01T02:37:38;101018.47;;;7.73;67.22
16690;BME280;8458;52.220;9.884;2023-05-01T02:40:06;101010.88;;;7.68;67.77
16690;BME280;8458;52.220;9.884;2023-05-01T02:42:36;101011.09;;;7.55;67.48
16690;BME280;8458;52.220;9.884;2023-05-01T02:45:06;101012.16;;;7.54;66.93
16690;BME280;8458;52.220;9.884;2023-05-01T02:47:36;101007.75;;;7.53;66.72
16690;BME280;8458;52.220;9.884;2023-05-01T02:50:04;101009.63;;;7.41;67.46
16690;BME280;8458;52.220;9.884;2023-05-01T02:52:32;101004.59;;;7.38;67.87
16690;BME280;8458;52.220;9.884;2023-05-01T02:54:59;101007.09;;;7.39;67.84
16690;BME280;8458;52.220;9.884;2023-05-01T02:57:26;101001.72;;;7.44;67.67
16690;BME280;8458;52.220;9.884;2023-05-01T02:59:54;100995.13;;;7.45;67.72
16690;BME280;8458;52.220;9.884;2023-05-01T03:02:21;100995.22;;;7.39;67.83
16690;BME280;8458;52.220;9.884;2023-05-01T03:04:47;100994.09;;;7.28;68.45
16690;BME280;8458;52.220;9.884;2023-05-01T03:07:14;100994.03;;;7.34;68.01
16690;BME280;8458;52.220;9.884;2023-05-01T03:09:40;100979.13;;;7.35;68.50
16690;BME280;8458;52.220;9.884;2023-05-01T03:12:07;100983.47;;;7.43;67.95
16690;BME280;8458;52.220;9.884;2023-05-01T03:14:33;100978.56;;;7.45;68.15
16690;BME280;8458;52.220;9.884;2023-05-01T03:17:01;100981.44;;;7.50;68.11
16690;BME280;8458;52.220;9.884;2023-05-01T03:19:27;100973.53;;;7.42;67.70
16690;BME280;8458;52.220;9.884;2023-05-01T03:21:55;100978.66;;;7.39;67.88
16690;BME280;8458;52.220;9.884;2023-05-01T03:24:21;100974.09;;;7.32;67.99
16690;BME280;8458;52.220;9.884;2023-05-01T03:26:49;100966.97;;;7.25;68.11
16690;BME280;8458;52.220;9.884;2023-05-01T03:29:15;100967.97;;;7.30;68.51
16690;BME280;8458;52.220;9.884;2023-05-01T03:31:41;100958.63;;;7.31;68.37
16690;BME280;8458;52.220;9.884;2023-05-01T03:34:09;100962.09;;;7.39;68.59
16690;BME280;8458;52.220;9.884;2023-05-01T03:36:36;100962.00;;;7.45;68.55
16690;BME280;8458;52.220;9.884;2023-05-01T03:39:02;100958.03;;;7.41;68.89
16690;BME280;8458;52.220;9.884;2023-05-01T03:41:29;100961.28;;;7.38;67.81
16690;BME280;8458;52.220;9.884;2023-05-01T03:43:55;100944.94;;;7.36;67.49
16690;BME280;8458;52.220;9.884;2023-05-01T03:46:22;100953.69;;;7.33;67.19
16690;BME280;8458;52.220;9.884;2023-05-01T03:48:48;100942.53;;;7.28;67.48
16690;BME280;8458;52.220;9.884;2023-05-01T03:51:16;100937.81;;;7.17;67.76
16690;BME280;8458;52.220;9.884;2023-05-01T03:53:42;100936.00;;;7.11;68.30
16690;BME280;8458;52.220;9.884;2023-05-01T03:56:09;100934.47;;;7.15;68.65
16690;BME280;8458;52.220;9.884;2023-05-01T03:58:36;100933.16;;;7.17;68.99
16690;BME280;8458;52.220;9.884;2023-05-01T04:01:02;100928.97;;;7.15;69.09
16690;BME280;8458;52.220;9.884;2023-05-01T04:03:29;100937.34;;;7.20;69.07
16690;BME280;8458;52.220;9.884;2023-05-01T04:05:55;100927.19;;;7.21;68.55
16690;BME280;8458;52.220;9.884;2023-05-01T04:08:23;100923.56;;;7.20;68.86
16690;BME280;8458;52.220;9.884;2023-05-01T04:10:50;100923.09;;;7.11;69.20
16690;BME280;8458;52.220;9.884;2023-05-01T04:13:16;100926.31;;;7.20;69.07
16690;BME280;8458;52.220;9.884;2023-05-01T04:15:43;100921.28;;;7.17;68.89
16690;BME280;8458;52.220;9.884;2023-05-01T04:18:10;100914.56;;;7.13;69.18
16690;BME280;8458;52.220;9.884;2023-05-01T04:20:37;100917.22;;;7.20;69.26
16690;BME280;8458;52.220;9.884;2023-05-01T04:23:04;100922.69;;;7.08;69.84
16690;BME280;8458;52.220;9.884;2023-05-01T04:25:32;100924.16;;;7.10;70.10
16690;BME280;8458;52.220;9.884;2023-05-01T04:27:58;100920.69;;;7.15;69.75
16690;BME280;8458;52.220;9.884;2023-05-01T04:30:25;100912.88;;;7.12;69.81
16690;BME280;8458;52.220;9.884;2023-05-01T04:32:51;100910.00;;;7.07;69.80
16690;BME280;8458;52.220;9.884;2023-05-01T04:35:18;100912.13;;;7.05;69.54
16690;BME280;8458;52.220;9.884;2023-05-01T04:37:45;100914.41;;;6.96;69.88
16690;BME280;8458;52.220;9.884;2023-05-01T04:40:11;100909.72;;;6.96;70.60
16690;BME280;8458;52.220;9.884;2023-05-01T04:42:39;100904.69;;;6.93;70.96
16690;BME280;8458;52.220;9.884;2023-05-01T04:45:07;100908.50;;;6.92;71.56
16690;BME280;8458;52.220;9.884;2023-05-01T04:47:33;100911.19;;;6.99;71.57
16690;BME280;8458;52.220;9.884;2023-05-01T04:50:00;100902.66;;;7.00;71.32
16690;BME280;8458;52.220;9.884;2023-05-01T04:52:26;100909.38;;;7.05;71.53
16690;BME280;8458;52.220;9.884;2023-05-01T04:54:53;100902.78;;;7.06;71.47
16690;BME280;8458;52.220;9.884;2023-05-01T04:57:19;100907.25;;;7.18;71.16
16690;BME280;8458;52.220;9.884;2023-05-01T04:59:47;100908.94;;;7.20;71.17
16690;BME280;8458;52.220;9.884;2023-05-01T05:02:13;100910.88;;;7.19;71.29
16690;BME280;8458;52.220;9.884;2023-05-01T05:04:40;100904.25;;;7.20;71.57
16690;BME280;8458;52.220;9.884;2023-05-01T05:07:06;100900.53;;;7.26;71.86
16690;BME280;8458;52.220;9.884;2023-05-01T05:09:34;100904.03;;;7.33;71.35
16690;BME280;8458;52.220;9.884;2023-05-01T05:12:00;100904.75;;;7.29;71.95
16690;BME280;8458;52.220;9.884;2023-05-01T05:14:28;100908.72;;;7.33;71.59
16690;BME280;8458;52.220;9.884;2023-05-01T05:16:56;100908.97;;;7.43;71.34
16690;BME280;8458;52.220;9.884;2023-05-01T05:19:23;100902.63;;;7.43;71.50
16690;BME280;8458;52.220;9.884;2023-05-01T05:21:49;100906.81;;;7.45;71.71
16690;BME280;8458;52.220;9.884;2023-05-01T05:24:16;100902.13;;;7.46;71.99
16690;BME280;8458;52.220;9.884;2023-05-01T05:26:43;100897.84;;;7.50;72.41
16690;BME280;8458;52.220;9.884;2023-05-01T05:29:09;100902.00;;;7.52;72.13
16690;BME280;8458;52.220;9.884;2023-05-01T05:31:35;100902.50;;;7.49;71.85
16690;BME280;8458;52.220;9.884;2023-05-01T05:34:03;100901.66;;;7.49;72.23
16690;BME280;8458;52.220;9.884;2023-05-01T05:36:30;100903.72;;;7.53;72.52
16690;BME280;8458;52.220;9.884;2023-05-01T05:38:56;100897.94;;;7.55;72.29
16690;BME280;8458;52.220;9.884;2023-05-01T05:41:24;100895.78;;;7.57;72.80
16690;BME280;8458;52.220;9.884;2023-05-01T05:43:51;100893.50;;;7.54;73.40
16690;BME280;8458;52.220;9.884;2023-05-01T05:46:18;100897.09;;;7.66;73.57
16690;BME280;8458;52.220;9.884;2023-05-01T05:48:44;100891.56;;;7.66;72.78
16690;BME280;8458;52.220;9.884;2023-05-01T05:51:12;100896.13;;;7.72;73.29
16690;BME280;8458;52.220;9.884;2023-05-01T05:53:39;100887.50;;;7.81;73.32
16690;BME280;8458;52.220;9.884;2023-05-01T05:56:06;100889.91;;;7.89;72.32
16690;BME280;8458;52.220;9.884;2023-05-01T05:58:32;100888.44;;;7.98;72.12
16690;BME280;8458;52.220;9.884;2023-05-01T06:00:59;100892.13;;;8.04;72.01
16690;BME280;8458;52.220;9.884;2023-05-01T06:03:25;100888.16;;;8.12;71.20
16690;BME280;8458;52.220;9.884;2023-05-01T06:05:53;100884.06;;;8.14;70.99
16690;BME280;8458;52.220;9.884;2023-05-01T06:08:20;100887.56;;;8.21;71.53
16690;BME280;8458;52.220;9.884;2023-05-01T06:10:47;100885.72;;;8.27;72.05
16690;BME280;8458;52.220;9.884;2023-05-01T06:13:13;100885.34;;;8.35;72.10
16690;BME280;8458;52.220;9.884;2023-05-01T06:15:40;100876.09;;;8.41;71.78
16690;BME280;8458;52.220;9.884;2023-05-01T06:18:07;100872.47;;;8.53;71.92
16690;BME280;8458;52.220;9.884;2023-05-01T06:20:33;100880.09;;;8.63;72.07
16690;BME280;8458;52.220;9.884;2023-05-01T06:23:00;100873.94;;;8.72;72.89
16690;BME280;8458;52.220;9.884;2023-05-01T06:25:28;100876.28;;;8.81;73.27
16690;BME280;8458;52.220;9.884;2023-05-01T06:27:55;100877.06;;;8.93;71.71
16690;BME280;8458;52.220;9.884;2023-05-01T06:30:21;100872.22;;;9.00;70.26
16690;BME280;8458;52.220;9.884;2023-05-01T06:32:48;100866.19;;;9.03;70.13
16690;BME280;8458;52.220;9.884;2023-05-01T06:35:14;100871.31;;;9.11;70.18
16690;BME280;8458;52.220;9.884;2023-05-01T06:37:41;100858.66;;;9.15;70.47
16690;BME280;8458;52.220;9.884;2023-05-01T06:40:08;100858.81;;;9.26;70.33
16690;BME280;8458;52.220;9.884;2023-05-01T06:42:36;100856.78;;;9.38;69.62
16690;BME280;8458;52.220;9.884;2023-05-01T06:45:03;100854.78;;;9.50;69.93
16690;BME280;8458;52.220;9.884;2023-05-01T06:47:30;100849.22;;;9.67;69.49
16690;BME280;8458;52.220;9.884;2023-05-01T06:49:56;100851.88;;;9.79;68.47
16690;BME280;8458;52.220;9.884;2023-05-01T06:52:23;100844.19;;;9.86;66.83
16690;BME280;8458;52.220;9.884;2023-05-01T06:54:49;100846.28;;;9.96;66.63
16690;BME280;8458;52.220;9.884;2023-05-01T06:57:16;100845.56;;;10.06;67.56
16690;BME280;8458;52.220;9.884;2023-05-01T06:59:44;100844.28;;;10.14;68.54
16690;BME280;8458;52.220;9.884;2023-05-01T07:02:10;100836.94;;;10.25;68.60
16690;BME280;8458;52.220;9.884;2023-05-01T07:04:37;100829.78;;;10.29;68.46
16690;BME280;8458;52.220;9.884;2023-05-01T07:07:03;100842.94;;;10.38;68.83
16690;BME280;8458;52.220;9.884;2023-05-01T07:09:30;100827.00;;;10.51;68.99
16690;BME280;8458;52.220;9.884;2023-05-01T07:11:57;100826.84;;;10.63;69.46
16690;BME280;8458;52.220;9.884;2023-05-01T07:14:23;100824.16;;;10.73;69.92
16690;BME280;8458;52.220;9.884;2023-05-01T07:16:51;100824.84;;;10.85;67.78
16690;BME280;8458;52.220;9.884;2023-05-01T07:19:18;100817.72;;;10.94;65.98
16690;BME280;8458;52.220;9.884;2023-05-01T07:21:44;100813.91;;;11.06;66.09
16690;BME280;8458;52.220;9.884;2023-05-01T07:24:11;100806.25;;;11.18;66.36
16690;BME280;8458;52.220;9.884;2023-05-01T07:26:38;100813.59;;;11.35;66.85
16690;BME280;8458;52.220;9.884;2023-05-01T07:29:04;100807.00;;;11.46;65.62
16690;BME280;8458;52.220;9.884;2023-05-01T07:31:31;100801.50;;;11.56;65.92
16690;BME280;8458;52.220;9.884;2023-05-01T07:33:59;100804.91;;;11.69;64.93
16690;BME280;8458;52.220;9.884;2023-05-01T07:36:25;100793.31;;;11.82;62.06
16690;BME280;8458;52.220;9.884;2023-05-01T07:38:53;100801.19;;;11.95;64.45
16690;BME280;8458;52.220;9.884;2023-05-01T07:41:20;100799.56;;;12.10;63.73
16690;BME280;8458;52.220;9.884;2023-05-01T07:43:49;100798.25;;;12.28;64.07
16690;BME280;8458;52.220;9.884;2023-05-01T07:46:16;100791.91;;;12.43;61.67
16690;BME280;8458;52.220;9.884;2023-05-01T07:48:42;100799.13;;;12.54;62.17
16690;BME280;8458;52.220;9.884;2023-05-01T07:51:10;100791.38;;;12.66;61.53
16690;BME280;8458;52.220;9.884;2023-05-01T07:53:36;100789.72;;;12.76;59.41
16690;BME280;8458;52.220;9.884;2023-05-01T07:56:05;100793.63;;;12.85;61.78
16690;BME280;8458;52.220;9.884;2023-05-01T07:58:32;100791.66;;;12.96;61.09
16690;BME280;8458;52.220;9.884;2023-05-01T08:01:00;100780.81;;;13.04;60.91
16690;BME280;8458;52.220;9.884;2023-05-01T08:03:27;100788.59;;;13.13;58.89
16690;BME280;8458;52.220;9.884;2023-05-01T08:05:54;100784.16;;;13.17;59.30
16690;BME280;8458;52.220;9.884;2023-05-01T08:08:22;100781.09;;;13.23;57.52
16690;BME280;8458;52.220;9.884;2023-05-01T08:10:50;100780.25;;;13.28;57.07
16690;BME280;8458;52.220;9.884;2023-05-01T08:13:16;100780.78;;;13.35;56.28
16690;BME280;8458;52.220;9.884;2023-05-01T08:15:44;100776.06;;;13.41;57.76
16690;BME280;8458;52.220;9.884;2023-05-01T08:18:11;100769.91;;;13.49;57.08
16690;BME280;8458;52.220;9.884;2023-05-01T08:20:43;100764.59;;;13.58;55.93
16690;BME280;8458;52.220;9.884;2023-05-01T08:23:10;100763.19;;;13.66;57.92
16690;BME280;8458;52.220;9.884;2023-05-01T08:25:38;100759.22;;;13.77;56.51
16690;BME280;8458;52.220;9.884;2023-05-01T08:28:04;100765.31;;;13.94;55.81
16690;BME280;8458;52.220;9.884;2023-05-01T08:30:31;100751.59;;;14.08;53.65
16690;BME280;8458;52.220;9.884;2023-05-01T08:32:57;100755.94;;;14.30;53.67
16690;BME280;8458;52.220;9.884;2023-05-01T08:35:24;100754.94;;;14.50;54.28
16690;BME280;8458;52.220;9.884;2023-05-01T08:37:50;100756.47;;;14.72;51.80
16690;BME280;8458;52.220;9.884;2023-05-01T08:40:17;100748.00;;;14.87;50.76
16690;BME280;8458;52.220;9.884;2023-05-01T08:42:45;100741.38;;;15.07;50.27
16690;BME280;8458;52.220;9.884;2023-05-01T08:45:14;100748.50;;;15.23;51.29
16690;BME280;8458;52.220;9.884;2023-05-01T08:47:41;100747.53;;;15.38;51.25
16690;BME280;8458;52.220;9.884;2023-05-01T08:50:09;100741.47;;;15.55;50.35
16690;BME280;8458;52.220;9.884;2023-05-01T08:52:39;100744.09;;;15.71;48.57
16690;BME280;8458;52.220;9.884;2023-05-01T08:55:07;100743.16;;;15.81;47.48
16690;BME280;8458;52.220;9.884;2023-05-01T08:57:37;100738.56;;;15.90;48.51
16690;BME280;8458;52.220;9.884;2023-05-01T09:00:10;100736.91;;;16.08;49.36
16690;BME280;8458;52.220;9.884;2023-05-01T09:02:40;100735.03;;;16.22;48.67
16690;BME280;8458;52.220;9.884;2023-05-01T09:05:08;100732.16;;;16.27;47.58
16690;BME280;8458;52.220;9.884;2023-05-01T09:07:35;100731.13;;;16.42;48.96
16690;BME280;8458;52.220;9.884;2023-05-01T09:10:03;100728.28;;;16.61;48.48
16690;BME280;8458;52.220;9.884;2023-05-01T09:12:30;100722.44;;;16.77;47.92
16690;BME280;8458;52.220;9.884;2023-05-01T09:15:01;100736.53;;;16.91;48.23
16690;BME280;8458;52.220;9.884;2023-05-01T09:17:30;100728.88;;;16.96;46.81
16690;BME280;8458;52.220;9.884;2023-05-01T09:20:00;100718.09;;;17.03;47.13
16690;BME280;8458;52.220;9.884;2023-05-01T09:22:29;100707.72;;;17.18;47.21
16690;BME280;8458;52.220;9.884;2023-05-01T09:24:56;100717.63;;;17.29;46.42
16690;BME280;8458;52.220;9.884;2023-05-01T09:27:23;100715.84;;;17.33;46.00
16690;BME280;8458;52.220;9.884;2023-05-01T09:29:50;100706.91;;;17.31;45.20
16690;BME280;8458;52.220;9.884;2023-05-01T09:32:18;100699.25;;;17.23;44.17
16690;BME280;8458;52.220;9.884;2023-05-01T09:34:47;100708.78;;;17.36;45.01
16690;BME280;8458;52.220;9.884;2023-05-01T09:37:24;100702.78;;;17.43;44.94
16690;BME280;8458;52.220;9.884;2023-05-01T09:40:01;100703.00;;;17.32;45.08
16690;BME280;8458;52.220;9.884;2023-05-01T09:42:28;100698.81;;;17.30;44.50
16690;BME280;8458;52.220;9.884;2023-05-01T09:44:55;100699.47;;;17.41;45.06
16690;BME280;8458;52.220;9.884;2023-05-01T09:47:22;100690.00;;;17.50;45.62
16690;BME280;8458;52.220;9.884;2023-05-01T09:49:49;100698.41;;;17.50;44.51
16690;BME280;8458;52.220;9.884;2023-05-01T09:52:16;100689.69;;;17.66;44.58
16690;BME280;8458;52.220;9.884;2023-05-01T09:54:42;100680.13;;;17.81;44.40
16690;BME280;8458;52.220;9.884;2023-05-01T09:57:09;100676.69;;;17.84;44.23
16690;BME280;8458;52.220;9.884;2023-05-01T09:59:35;100672.66;;;17.90;44.13
16690;BME280;8458;52.220;9.884;2023-05-01T10:02:02;100687.19;;;17.92;44.65
16690;BME280;8458;52.220;9.884;2023-05-01T10:04:30;100680.13;;;17.95;44.08
16690;BME280;8458;52.220;9.884;2023-05-01T10:07:00;100675.53;;;18.13;43.61
16690;BME280;8458;52.220;9.884;2023-05-01T10:09:36;100671.50;;;18.27;44.58
16690;BME280;8458;52.220;9.884;2023-05-01T10:12:03;100671.00;;;18.48;43.96
16690;BME280;8458;52.220;9.884;2023-05-01T10:14:30;100671.72;;;18.54;43.02
16690;BME280;8458;52.220;9.884;2023-05-01T10:16:58;100665.72;;;18.46;41.76
16690;BME280;8458;52.220;9.884;2023-05-01T10:19:24;100674.03;;;18.52;41.71
16690;BME280;8458;52.220;9.884;2023-05-01T10:21:51;100670.84;;;18.67;42.29
16690;BME280;8458;52.220;9.884;2023-05-01T10:24:19;100661.41;;;18.86;42.00
16690;BME280;8458;52.220;9.884;2023-05-01T10:26:47;100653.22;;;18.98;42.98
16690;BME280;8458;52.220;9.884;2023-05-01T10:29:14;100650.63;;;19.10;43.37
16690;BME280;8458;52.220;9.884;2023-05-01T10:31:41;100661.78;;;19.33;42.96
16690;BME280;8458;52.220;9.884;2023-05-01T10:34:08;100658.53;;;19.48;42.65
16690;BME280;8458;52.220;9.884;2023-05-01T10:36:37;100662.00;;;19.45;42.32
16690;BME280;8458;52.220;9.884;2023-05-01T10:39:05;100654.94;;;19.57;41.39
16690;BME280;8458;52.220;9.884;2023-05-01T10:42:00;100650.13;;;19.57;41.86
16690;BME280;8458;52.220;9.884;2023-05-01T10:44:27;100649.34;;;19.74;42.00
16690;BME280;8458;52.220;9.884;2023-05-01T10:46:55;100635.50;;;19.86;42.03
16690;BME280;8458;52.220;9.884;2023-05-01T10:49:21;100638.97;;;19.92;41.97
16690;BME280;8458;52.220;9.884;2023-05-01T10:51:58;100634.50;;;20.00;41.46
16690;BME280;8458;52.220;9.884;2023-05-01T10:54:26;100636.50;;;19.99;41.52
16690;BME280;8458;52.220;9.884;2023-05-01T10:56:54;100633.69;;;20.08;41.57
16690;BME280;8458;52.220;9.884;2023-05-01T10:59:22;100634.34;;;20.05;41.09
16690;BME280;8458;52.220;9.884;2023-05-01T11:01:49;100629.72;;;20.18;40.00
16690;BME280;8458;52.220;9.884;2023-05-01T11:04:45;100623.75;;;20.02;40.60
16690;BME280;8458;52.220;9.884;2023-05-01T11:07:18;100618.44;;;20.18;41.58
16690;BME280;8458;52.220;9.884;2023-05-01T11:09:46;100625.88;;;20.40;40.49
16690;BME280;8458;52.220;9.884;2023-05-01T11:12:50;100618.09;;;20.46;40.68
16690;BME280;8458;52.220;9.884;2023-05-01T11:15:29;100616.59;;;20.66;41.32
16690;BME280;8458;52.220;9.884;2023-05-01T11:17:56;100616.75;;;20.69;41.51
16690;BME280;8458;52.220;9.884;2023-05-01T11:20:46;100612.56;;;20.84;40.99
16690;BME280;8458;52.220;9.884;2023-05-01T11:23:21;100615.19;;;20.89;39.79
16690;BME280;8458;52.220;9.884;2023-05-01T11:25:49;100609.56;;;20.89;39.93
16690;BME280;8458;52.220;9.884;2023-05-01T11:28:26;100606.72;;;21.07;39.72
16690;BME280;8458;52.220;9.884;2023-05-01T11:30:57;100615.06;;;21.24;40.30
16690;BME280;8458;52.220;9.884;2023-05-01T11:33:24;100596.91;;;21.43;39.46
16690;BME280;8458;52.220;9.884;2023-05-01T11:35:58;100606.84;;;21.49;39.24
16690;BME280;8458;52.220;9.884;2023-05-01T11:38:25;100602.94;;;21.62;39.71
16690;BME280;8458;52.220;9.884;2023-05-01T11:40:57;100592.63;;;21.66;39.05
16690;BME280;8458;52.220;9.884;2023-05-01T11:43:24;100600.25;;;21.87;38.94
16690;BME280;8458;52.220;9.884;2023-05-01T11:45:51;100583.25;;;21.75;38.48
16690;BME280;8458;52.220;9.884;2023-05-01T11:48:21;100580.94;;;21.77;39.66
16690;BME280;8458;52.220;9.884;2023-05-01T11:50:48;100585.06;;;21.79;38.55
16690;BME280;8458;52.220;9.884;2023-05-01T11:53:15;100586.16;;;21.87;39.73
16690;BME280;8458;52.220;9.884;2023-05-01T11:55:41;100577.63;;;21.96;38.66
16690;BME280;8458;52.220;9.884;2023-05-01T11:58:09;100576.81;;;21.95;39.24
16690;BME280;8458;52.220;9.884;2023-05-01T12:00:37;100583.22;;;22.05;39.66
16690;BME280;8458;52.220;9.884;2023-05-01T12:03:06;100576.25;;;22.23;39.65
16690;BME280;8458;52.220;9.884;2023-05-01T12:05:35;100574.00;;;22.29;38.96
16690;BME280;8458;52.220;9.884;2023-05-01T12:08:07;100576.78;;;22.37;37.95
16690;BME280;8458;52.220;9.884;2023-05-01T12:10:35;100574.00;;;22.50;38.30
16690;BME280;8458;52.220;9.884;2023-05-01T12:13:02;100577.19;;;22.48;38.29
16690;BME280;8458;52.220;9.884;2023-05-01T12:15:29;100578.91;;;22.41;39.14
16690;BME280;8458;52.220;9.884;2023-05-01T12:17:56;100571.25;;;22.41;38.63
16690;BME280;8458;52.220;9.884;2023-05-01T12:20:34;100569.06;;;22.26;38.13
16690;BME280;8458;52.220;9.884;2023-05-01T12:23:02;100571.91;;;22.05;37.97
16690;BME280;8458;52.220;9.884;2023-05-01T12:25:29;100570.59;;;21.81;38.84
16690;BME280;8458;52.220;9.884;2023-05-01T12:27:58;100559.72;;;21.92;38.11
16690;BME280;8458;52.220;9.884;2023-05-01T12:30:24;100562.06;;;22.11;38.42
16690;BME280;8458;52.220;9.884;2023-05-01T12:32:52;100550.75;;;22.32;38.07
16690;BME280;8458;52.220;9.884;2023-05-01T12:35:19;100550.22;;;22.51;38.15
16690;BME280;8458;52.220;9.884;2023-05-01T12:37:47;100561.09;;;22.73;38.43
16690;BME280;8458;52.220;9.884;2023-05-01T12:40:14;100550.75;;;22.78;38.49
16690;BME280;8458;52.220;9.884;2023-05-01T12:42:40;100558.00;;;22.66;37.46
16690;BME280;8458;52.220;9.884;2023-05-01T12:45:08;100552.16;;;22.71;37.79
16690;BME280;8458;52.220;9.884;2023-05-01T12:47:36;100551.69;;;22.82;37.61
16690;BME280;8458;52.220;9.884;2023-05-01T12:50:04;100548.41;;;23.04;37.10
16690;BME280;8458;52.220;9.884;2023-05-01T12:52:31;100544.41;;;22.93;36.72
16690;BME280;8458;52.220;9.884;2023-05-01T12:55:03;100532.84;;;22.98;37.43
16690;BME280;8458;52.220;9.884;2023-05-01T12:57:30;100534.72;;;22.94;37.18
16690;BME280;8458;52.220;9.884;2023-05-01T12:59:58;100524.72;;;22.97;37.33
16690;BME280;8458;52.220;9.884;2023-05-01T13:02:29;100531.69;;;22.87;37.03
16690;BME280;8458;52.220;9.884;2023-05-01T13:05:04;100519.44;;;22.83;36.95
16690;BME280;8458;52.220;9.884;2023-05-01T13:07:31;100521.88;;;22.60;37.53
16690;BME280;8458;52.220;9.884;2023-05-01T13:09:58;100520.56;;;22.57;37.84
16690;BME280;8458;52.220;9.884;2023-05-01T13:12:27;100528.94;;;22.66;37.61